FRA weather

Frankfurt am Main Airport
Frankfurt am Main, Hesse, Germany

Public forecast

Using degrees Celsius for public forecast. Weather courtesy of forecast.io.

METAR (pilot weather report)

Retrieved 2017/12/15 22:20 UTC (0 seconds ago):

EDDF 152220Z VRB02KT 9999 RA FEW010 SCT012 OVC020 02/02 Q1001 R88/2///95 TEMPO -RA BKN014

TAF (pilot weather forecast)

Retrieved 2017/12/15 18:27 UTC (4 hours ago):

TAF EDDF 151700Z 1518/1624 VRB03KT 9999 BKN025 TEMPO 1518/1520 SCT025 TEMPO 1520/1608 4500 -RA BKN014 PROB30 TEMPO 1522/1608 2500 -RASN BKN008 BECMG 1608/1610 26008KT TEMPO 1610/1618 4000 SHRASN BKN014 SCT020CB